sensor_id;sensor_type;location;lat;lon;timestamp;pressure;altitude;pressure_sealevel;temperature;humidity
22862;BME280;11598;50.652;6.172;2022-12-24T00:03:13;95734.56;;;6.27;100.00
22862;BME280;11598;50.652;6.172;2022-12-24T00:13:14;95738.56;;;6.31;100.00
22862;BME280;11598;50.652;6.172;2022-12-24T00:23:15;95731.56;;;6.33;100.00
22862;BME280;11598;50.652;6.172;2022-12-24T00:33:16;95732.28;;;6.35;100.00
22862;BME280;11598;50.652;6.172;2022-12-24T00:43:16;95737.13;;;6.40;100.00
22862;BME280;11598;50.652;6.172;2022-12-24T00:53:17;95763.44;;;6.45;100.00
22862;BME280;11598;50.652;6.172;2022-12-24T01:03:17;95795.22;;;6.46;100.00
22862;BME280;11598;50.652;6.172;2022-12-24T01:13:18;95799.56;;;6.45;100.00
22862;BME280;11598;50.652;6.172;2022-12-24T01:23:18;95808.44;;;6.41;100.00
22862;BME280;11598;50.652;6.172;2022-12-24T01:33:19;95810.50;;;6.36;100.00
22862;BME280;11598;50.652;6.172;2022-12-24T01:43:21;95817.94;;;6.41;100.00
22862;BME280;11598;50.652;6.172;2022-12-24T01:53:27;95825.44;;;6.44;100.00
22862;BME280;11598;50.652;6.172;2022-12-24T02:03:28;95821.09;;;6.44;100.00
22862;BME280;11598;50.652;6.172;2022-12-24T02:13:29;95829.56;;;6.46;100.00
22862;BME280;11598;50.652;6.172;2022-12-24T02:44:05;95853.53;;;6.48;100.00
22862;BME280;11598;50.652;6.172;2022-12-24T02:54:06;95851.88;;;6.47;100.00
22862;BME280;11598;50.652;6.172;2022-12-24T03:14:10;95864.88;;;6.46;100.00
22862;BME280;11598;50.652;6.172;2022-12-24T03:24:10;95862.22;;;6.47;100.00
22862;BME280;11598;50.652;6.172;2022-12-24T03:34:12;95865.59;;;6.48;100.00
22862;BME280;11598;50.652;6.172;2022-12-24T03:44:12;95896.47;;;6.49;100.00
22862;BME280;11598;50.652;6.172;2022-12-24T03:54:13;95905.03;;;6.50;100.00
22862;BME280;11598;50.652;6.172;2022-12-24T04:04:13;95900.50;;;6.53;100.00
22862;BME280;11598;50.652;6.172;2022-12-24T04:14:14;95910.72;;;6.55;100.00
22862;BME280;11598;50.652;6.172;2022-12-24T04:24:14;95926.13;;;6.56;100.00
22862;BME280;11598;50.652;6.172;2022-12-24T04:34:15;95921.78;;;6.57;100.00
22862;BME280;11598;50.652;6.172;2022-12-24T04:44:15;95941.69;;;6.55;100.00
22862;BME280;11598;50.652;6.172;2022-12-24T04:54:16;95937.25;;;6.57;100.00
22862;BME280;11598;50.652;6.172;2022-12-24T05:04:16;95943.25;;;6.57;100.00
22862;BME280;11598;50.652;6.172;2022-12-24T05:14:16;95941.47;;;6.58;100.00
22862;BME280;11598;50.652;6.172;2022-12-24T05:24:17;95941.59;;;6.56;100.00
22862;BME280;11598;50.652;6.172;2022-12-24T05:34:35;95950.25;;;6.55;100.00
22862;BME280;11598;50.652;6.172;2022-12-24T05:44:36;95946.03;;;6.54;100.00
22862;BME280;11598;50.652;6.172;2022-12-24T05:54:36;95952.31;;;6.50;100.00
22862;BME280;11598;50.652;6.172;2022-12-24T06:04:37;95976.47;;;6.49;100.00
22862;BME280;11598;50.652;6.172;2022-12-24T06:14:37;95989.56;;;6.46;100.00
22862;BME280;11598;50.652;6.172;2022-12-24T06:24:38;96009.06;;;6.38;100.00
22862;BME280;11598;50.652;6.172;2022-12-24T06:34:38;96015.25;;;6.35;100.00
22862;BME280;11598;50.652;6.172;2022-12-24T06:44:38;96001.41;;;6.36;100.00
22862;BME280;11598;50.652;6.172;2022-12-24T06:54:39;96017.28;;;6.30;100.00
22862;BME280;11598;50.652;6.172;2022-12-24T07:04:39;96018.13;;;6.30;100.00
22862;BME280;11598;50.652;6.172;2022-12-24T07:14:39;96043.00;;;6.31;100.00
22862;BME280;11598;50.652;6.172;2022-12-24T07:24:40;96053.13;;;6.34;100.00
22862;BME280;11598;50.652;6.172;2022-12-24T07:34:40;96059.94;;;6.35;100.00
22862;BME280;11598;50.652;6.172;2022-12-24T07:44:41;96063.44;;;6.34;100.00
22862;BME280;11598;50.652;6.172;2022-12-24T07:54:41;96065.94;;;6.36;100.00
22862;BME280;11598;50.652;6.172;2022-12-24T08:04:41;96088.13;;;6.39;100.00
22862;BME280;11598;50.652;6.172;2022-12-24T08:14:42;96100.81;;;6.42;100.00
22862;BME280;11598;50.652;6.172;2022-12-24T08:24:42;96112.91;;;6.41;100.00
22862;BME280;11598;50.652;6.172;2022-12-24T08:34:42;96131.50;;;6.46;100.00
22862;BME280;11598;50.652;6.172;2022-12-24T08:44:43;96129.28;;;6.54;100.00
22862;BME280;11598;50.652;6.172;2022-12-24T08:54:43;96136.56;;;6.75;100.00
22862;BME280;11598;50.652;6.172;2022-12-24T09:04:43;96160.22;;;6.82;100.00
22862;BME280;11598;50.652;6.172;2022-12-24T09:14:44;96167.00;;;6.97;100.00
22862;BME280;11598;50.652;6.172;2022-12-24T09:24:44;96178.50;;;7.06;100.00
22862;BME280;11598;50.652;6.172;2022-12-24T09:34:45;96191.59;;;7.03;100.00
22862;BME280;11598;50.652;6.172;2022-12-24T10:05:11;96211.00;;;7.35;100.00
22862;BME280;11598;50.652;6.172;2022-12-24T10:15:29;96214.97;;;7.54;100.00
22862;BME280;11598;50.652;6.172;2022-12-24T10:35:54;96229.66;;;7.66;100.00
22862;BME280;11598;50.652;6.172;2022-12-24T10:45:59;96228.31;;;7.60;100.00
22862;BME280;11598;50.652;6.172;2022-12-24T10:56:03;96232.44;;;7.50;100.00
22862;BME280;11598;50.652;6.172;2022-12-24T11:06:12;96235.50;;;7.43;100.00
22862;BME280;11598;50.652;6.172;2022-12-24T11:16:29;96216.72;;;7.53;100.00
22862;BME280;11598;50.652;6.172;2022-12-24T11:26:31;96227.69;;;7.57;100.00
22862;BME280;11598;50.652;6.172;2022-12-24T11:36:31;96242.97;;;7.47;100.00
22862;BME280;11598;50.652;6.172;2022-12-24T11:46:39;96239.19;;;7.53;100.00
22862;BME280;11598;50.652;6.172;2022-12-24T11:56:46;96233.91;;;7.80;100.00
22862;BME280;11598;50.652;6.172;2022-12-24T12:06:54;96239.19;;;8.04;100.00
22862;BME280;11598;50.652;6.172;2022-12-24T12:27:38;96249.22;;;8.09;100.00
22862;BME280;11598;50.652;6.172;2022-12-24T12:37:47;96233.41;;;8.26;100.00
22862;BME280;11598;50.652;6.172;2022-12-24T12:58:03;96248.59;;;8.18;100.00
22862;BME280;11598;50.652;6.172;2022-12-24T13:08:37;96254.63;;;8.05;100.00
22862;BME280;11598;50.652;6.172;2022-12-24T13:19:13;96262.47;;;8.04;100.00
22862;BME280;11598;50.652;6.172;2022-12-24T13:50:20;96286.88;;;7.74;100.00
22862;BME280;11598;50.652;6.172;2022-12-24T14:10:30;96298.41;;;7.56;100.00
22862;BME280;11598;50.652;6.172;2022-12-24T14:20:31;96294.50;;;7.50;100.00
22862;BME280;11598;50.652;6.172;2022-12-24T14:30:32;96300.66;;;7.48;100.00
22862;BME280;11598;50.652;6.172;2022-12-24T14:40:36;96310.69;;;7.39;100.00
22862;BME280;11598;50.652;6.172;2022-12-24T15:01:21;96327.16;;;7.24;100.00
22862;BME280;11598;50.652;6.172;2022-12-24T15:11:22;96348.09;;;7.19;100.00
22862;BME280;11598;50.652;6.172;2022-12-24T15:21:35;96354.50;;;7.14;100.00
22862;BME280;11598;50.652;6.172;2022-12-24T15:31:36;96350.34;;;7.11;100.00
22862;BME280;11598;50.652;6.172;2022-12-24T15:41:39;96372.25;;;7.06;100.00
22862;BME280;11598;50.652;6.172;2022-12-24T15:52:07;96385.00;;;6.80;100.00
22862;BME280;11598;50.652;6.172;2022-12-24T16:02:35;96384.59;;;6.57;100.00
22862;BME280;11598;50.652;6.172;2022-12-24T16:12:36;96380.53;;;6.53;100.00
22862;BME280;11598;50.652;6.172;2022-12-24T16:22:37;96373.25;;;6.60;100.00
22862;BME280;11598;50.652;6.172;2022-12-24T16:32:40;96380.16;;;6.45;100.00
22862;BME280;11598;50.652;6.172;2022-12-24T16:42:41;96388.50;;;6.20;100.00
22862;BME280;11598;50.652;6.172;2022-12-24T16:53:00;96395.09;;;5.96;100.00
22862;BME280;11598;50.652;6.172;2022-12-24T17:03:00;96390.38;;;5.72;100.00
22862;BME280;11598;50.652;6.172;2022-12-24T17:13:00;96391.13;;;5.58;100.00
22862;BME280;11598;50.652;6.172;2022-12-24T17:23:01;96384.91;;;5.46;100.00
22862;BME280;11598;50.652;6.172;2022-12-24T17:33:01;96388.06;;;5.36;100.00
22862;BME280;11598;50.652;6.172;2022-12-24T17:43:01;96391.00;;;5.29;100.00
22862;BME280;11598;50.652;6.172;2022-12-24T17:53:02;96410.50;;;5.34;100.00
22862;BME280;11598;50.652;6.172;2022-12-24T18:03:03;96412.25;;;5.33;100.00
22862;BME280;11598;50.652;6.172;2022-12-24T18:13:04;96413.06;;;5.34;100.00
22862;BME280;11598;50.652;6.172;2022-12-24T18:23:05;96405.78;;;5.42;100.00
22862;BME280;11598;50.652;6.172;2022-12-24T18:33:05;96388.31;;;5.47;100.00
22862;BME280;11598;50.652;6.172;2022-12-24T18:43:05;96381.09;;;5.54;100.00
22862;BME280;11598;50.652;6.172;2022-12-24T18:53:06;96371.41;;;5.57;100.00
22862;BME280;11598;50.652;6.172;2022-12-24T19:03:06;96390.97;;;5.61;100.00
22862;BME280;11598;50.652;6.172;2022-12-24T19:13:07;96406.34;;;5.63;100.00
22862;BME280;11598;50.652;6.172;2022-12-24T19:23:07;96388.94;;;5.66;100.00
22862;BME280;11598;50.652;6.172;2022-12-24T19:33:08;96406.75;;;5.71;100.00
22862;BME280;11598;50.652;6.172;2022-12-24T19:43:09;96397.28;;;5.71;100.00
22862;BME280;11598;50.652;6.172;2022-12-24T19:53:09;96403.09;;;5.75;100.00
22862;BME280;11598;50.652;6.172;2022-12-24T20:03:10;96412.38;;;5.78;100.00
22862;BME280;11598;50.652;6.172;2022-12-24T20:13:10;96396.59;;;5.84;100.00
22862;BME280;11598;50.652;6.172;2022-12-24T20:23:10;96393.81;;;5.87;100.00
22862;BME280;11598;50.652;6.172;2022-12-24T20:33:11;96398.91;;;5.88;100.00
22862;BME280;11598;50.652;6.172;2022-12-24T20:43:11;96391.72;;;5.93;100.00
22862;BME280;11598;50.652;6.172;2022-12-24T20:53:12;96421.38;;;6.02;100.00
22862;BME280;11598;50.652;6.172;2022-12-24T21:03:13;96399.34;;;6.11;100.00
22862;BME280;11598;50.652;6.172;2022-12-24T21:13:14;96415.34;;;6.02;100.00
22862;BME280;11598;50.652;6.172;2022-12-24T21:23:14;96415.94;;;5.91;100.00
22862;BME280;11598;50.652;6.172;2022-12-24T21:33:14;96412.88;;;5.84;100.00
22862;BME280;11598;50.652;6.172;2022-12-24T21:43:15;96413.44;;;5.89;100.00
22862;BME280;11598;50.652;6.172;2022-12-24T21:53:15;96403.66;;;5.96;100.00
22862;BME280;11598;50.652;6.172;2022-12-24T22:03:34;96394.66;;;6.03;100.00
22862;BME280;11598;50.652;6.172;2022-12-24T22:13:35;96385.25;;;6.02;100.00
22862;BME280;11598;50.652;6.172;2022-12-24T22:23:35;96381.84;;;6.02;100.00
22862;BME280;11598;50.652;6.172;2022-12-24T22:33:36;96382.75;;;6.01;100.00
22862;BME280;11598;50.652;6.172;2022-12-24T22:43:36;96390.16;;;6.07;100.00
22862;BME280;11598;50.652;6.172;2022-12-24T22:53:37;96385.28;;;6.17;100.00
22862;BME280;11598;50.652;6.172;2022-12-24T23:03:37;96365.84;;;6.25;100.00
22862;BME280;11598;50.652;6.172;2022-12-24T23:13:40;96346.63;;;6.31;100.00
22862;BME280;11598;50.652;6.172;2022-12-24T23:23:59;96351.13;;;6.42;100.00
22862;BME280;11598;50.652;6.172;2022-12-24T23:34:00;96335.19;;;6.49;100.00
22862;BME280;11598;50.652;6.172;2022-12-24T23:44:00;96330.66;;;6.53;100.00
22862;BME280;11598;50.652;6.172;2022-12-24T23:54:01;96330.41;;;6.57;100.00
